Time;durP1;ratioP1;P1;durP2;ratioP2;P2;SDS_P1;SDS_P2;PMS_P1;PMS_P2;Temp;Humidity;BMP_temperature;BMP_pressure;BME280_temperature;BME280_humidity;BME280_pressure;Samples;Min_cycle;Max_cycle;Signal;HPM_P1;HPM_P2
2022/06/18 00:00:23;;;;;;;0.95;0.65;;;;;;;16.95;62.89;101572.63;2080513;28;20042;-70
2022/06/18 00:01:33;;;;;;;2.03;0.80;;;;;;;16.91;63.20;101562.88;2088414;28;20901;-71
2022/06/18 00:03:53;;;;;;;3.75;0.80;;;;;;;16.89;63.75;101563.91;2097560;28;20051;-70
2022/06/18 00:04:55;;;;;;;2.35;1.10;;;;;;;16.85;63.28;101563.13;2096535;28;22969;-69
2022/06/18 00:05:57;;;;;;;3.78;0.80;;;;;;;16.83;63.90;101555.97;2096349;28;20041;-68
2022/06/18 00:07:06;;;;;;;2.00;0.85;;;;;;;16.83;64.11;101564.09;2096705;28;20985;-69
2022/06/18 00:08:16;;;;;;;3.55;0.88;;;;;;;16.87;64.04;101557.63;2096413;28;20563;-69
2022/06/18 00:09:28;;;;;;;3.33;0.90;;;;;;;16.87;63.40;101565.75;2082494;28;20042;-69
2022/06/18 00:10:33;;;;;;;3.30;1.10;;;;;;;16.85;63.50;101562.25;2091026;28;20029;-69
2022/06/18 00:14:32;;;;;;;1.70;0.82;;;;;;;16.80;63.48;101563.28;2096047;28;31291;-69
2022/06/18 00:15:38;;;;;;;1.58;0.90;;;;;;;16.77;63.97;101557.97;2096358;28;29283;-70
2022/06/18 00:16:40;;;;;;;1.33;0.80;;;;;;;16.74;63.58;101554.50;2096723;28;38919;-68
2022/06/18 00:17:45;;;;;;;1.80;1.00;;;;;;;16.76;63.87;101560.72;2096511;28;33061;-70
2022/06/18 00:18:47;;;;;;;3.30;1.00;;;;;;;16.73;64.65;101559.03;2096815;28;21024;-69
2022/06/18 00:19:49;;;;;;;2.38;1.00;;;;;;;16.70;64.14;101553.75;2089974;28;29859;-69
2022/06/18 00:20:51;;;;;;;1.13;0.75;;;;;;;16.68;64.07;101554.75;2096129;28;29557;-69
2022/06/18 00:21:53;;;;;;;2.13;1.17;;;;;;;16.66;64.64;101557.53;2096112;28;22575;-70
2022/06/18 00:23:00;;;;;;;4.85;1.10;;;;;;;16.63;63.89;101549.50;2097080;28;20975;-69
2022/06/18 00:24:19;;;;;;;3.47;1.15;;;;;;;16.60;64.52;101546.94;2097418;28;20053;-69
2022/06/18 00:25:44;;;;;;;2.08;0.85;;;;;;;16.56;64.46;101545.28;2096375;28;27588;-69
2022/06/18 00:26:46;;;;;;;2.25;1.02;;;;;;;16.54;64.97;101547.16;2092173;28;20898;-70
2022/06/18 00:27:49;;;;;;;2.40;1.00;;;;;;;16.50;64.48;101546.41;2096462;28;20122;-69
2022/06/18 00:28:52;;;;;;;2.15;0.90;;;;;;;16.50;65.33;101537.41;2097117;28;20053;-70
2022/06/18 00:29:54;;;;;;;2.38;1.10;;;;;;;16.50;65.48;101540.13;2095280;28;24160;-69
2022/06/18 00:31:03;;;;;;;2.90;0.90;;;;;;;16.47;65.41;101540.22;2096240;28;20119;-68
2022/06/18 00:32:06;;;;;;;2.70;1.20;;;;;;;16.49;64.97;101532.94;2087903;28;20041;-69
2022/06/18 00:33:08;;;;;;;3.60;1.00;;;;;;;16.49;65.07;101532.94;2087940;28;23413;-70
2022/06/18 00:34:13;;;;;;;4.15;1.50;;;;;;;16.50;65.70;101535.59;2098047;28;21956;-68
2022/06/18 00:35:15;;;;;;;3.13;1.00;;;;;;;16.51;65.17;101533.75;2097014;28;26631;-67
2022/06/18 00:36:18;;;;;;;5.38;1.30;;;;;;;16.49;65.68;101532.94;2097300;28;20103;-69
2022/06/18 00:37:25;;;;;;;4.60;1.48;;;;;;;16.48;65.03;101536.59;2096256;28;20041;-68
2022/06/18 00:38:38;;;;;;;2.28;1.10;;;;;;;16.53;65.25;101530.06;2097231;28;24282;-68
2022/06/18 00:39:41;;;;;;;2.90;1.00;;;;;;;16.51;65.33;101536.47;2096625;28;20072;-68
2022/06/18 00:40:45;;;;;;;1.67;1.02;;;;;;;16.50;65.30;101534.72;2089391;28;20038;-69
2022/06/18 00:41:51;;;;;;;3.33;0.98;;;;;;;16.49;65.80;101533.84;2079866;28;20185;-69
2022/06/18 00:42:56;;;;;;;2.08;1.10;;;;;;;16.48;64.98;101528.50;2081180;28;23123;-69
2022/06/18 00:44:11;;;;;;;3.28;1.00;;;;;;;16.45;65.45;101526.78;2096271;28;20041;-69
2022/06/18 00:45:20;;;;;;;1.90;1.00;;;;;;;16.45;65.57;101526.78;2097098;28;20843;-65
2022/06/18 00:46:56;;;;;;;2.85;1.00;;;;;;;16.42;65.38;101533.19;2096235;28;20906;-69
2022/06/18 00:48:19;;;;;;;2.50;1.17;;;;;;;16.37;65.64;101521.66;2096684;28;20045;-69
2022/06/18 00:50:17;;;;;;;4.72;1.00;;;;;;;16.37;65.58;101527.06;2096163;28;35554;-69
2022/06/18 00:51:30;;;;;;;1.52;1.00;;;;;;;16.32;66.02;101523.66;2062699;28;20089;-69
2022/06/18 00:52:40;;;;;;;3.22;1.40;;;;;;;16.29;65.84;101526.47;2070624;28;29272;-69
2022/06/18 00:53:48;;;;;;;;;;;;;;;16.26;66.15;101523.00;2063670;28;20086;-69
2022/06/18 00:55:20;;;;;;;2.08;1.35;;;;;;;16.22;66.03;101528.53;2067818;28;20791;-69
2022/06/18 00:56:33;;;;;;;3.40;1.55;;;;;;;16.21;65.83;101518.66;2071502;28;20049;-69
2022/06/18 00:57:58;;;;;;;1.77;1.30;;;;;;;16.21;66.05;101526.75;2096258;28;24017;-69
2022/06/18 00:59:37;;;;;;;2.67;1.35;;;;;;;16.23;66.57;101515.91;2096218;28;21149;-69
2022/06/18 01:00:43;;;;;;;3.53;1.70;;;;;;;16.23;66.44;101522.19;2096451;28;25198;-70
2022/06/18 01:01:48;;;;;;;2.38;1.38;;;;;;;16.23;65.71;101513.19;2096560;28;20077;-69
2022/06/18 01:02:53;;;;;;;4.07;1.23;;;;;;;16.22;65.89;101515.03;2088490;28;29181;-69
2022/06/18 01:03:56;;;;;;;2.22;1.35;;;;;;;16.22;66.10;101517.72;2095690;28;20116;-69
2022/06/18 01:04:58;;;;;;;3.83;1.48;;;;;;;16.23;65.74;101521.31;2104365;28;20080;-69
2022/06/18 01:06:27;;;;;;;1.95;1.30;;;;;;;16.25;66.84;101521.25;2104737;28;20044;-69
2022/06/18 01:07:36;;;;;;;2.63;1.33;;;;;;;16.22;66.08;101516.81;2096145;28;20048;-69
2022/06/18 01:08:44;;;;;;;2.28;1.30;;;;;;;16.21;66.26;101509.69;2099666;28;20032;-69
2022/06/18 01:09:49;;;;;;;2.38;1.15;;;;;;;16.22;66.23;101519.53;2087577;28;20143;-67
2022/06/18 01:11:04;;;;;;;3.13;1.30;;;;;;;16.20;66.47;101513.31;2090334;28;20107;-68
2022/06/18 01:12:10;;;;;;;2.67;1.35;;;;;;;16.19;66.45;101515.13;2093880;28;20167;-71
2022/06/18 01:13:16;;;;;;;1.95;1.17;;;;;;;16.17;66.52;101505.34;2087769;28;20083;-70
2022/06/18 01:14:18;;;;;;;4.88;1.40;;;;;;;16.14;66.58;101505.44;2071682;28;20042;-69
2022/06/18 01:15:21;;;;;;;3.28;1.40;;;;;;;16.11;66.65;101516.34;2072133;28;20136;-67
2022/06/18 01:16:26;;;;;;;1.88;1.20;;;;;;;16.09;66.72;101513.69;2080807;28;20957;-68
2022/06/18 01:17:31;;;;;;;1.20;1.00;;;;;;;16.06;66.46;101508.44;2087699;28;20029;-68
2022/06/18 01:18:33;;;;;;;2.15;1.42;;;;;;;16.03;66.52;101509.41;2087997;28;20037;-68
2022/06/18 01:19:44;;;;;;;2.15;1.25;;;;;;;15.98;66.78;101506.00;2087411;28;20038;-68
2022/06/18 01:21:08;;;;;;;1.50;1.05;;;;;;;15.97;66.90;101508.75;2082861;28;20049;-69
2022/06/18 01:22:52;;;;;;;1.52;1.10;;;;;;;15.93;67.36;101507.09;2075035;28;20037;-69
2022/06/18 01:24:17;;;;;;;3.45;1.60;;;;;;;15.89;67.33;101500.94;2083833;28;20911;-68
2022/06/18 01:25:25;;;;;;;5.13;1.40;;;;;;;15.88;67.48;101515.38;2082946;28;20041;-68
2022/06/18 01:26:29;;;;;;;2.15;1.40;;;;;;;15.84;67.24;101500.22;2072016;28;20058;-68
2022/06/18 01:27:35;;;;;;;3.03;1.33;;;;;;;15.82;67.44;101499.38;2080366;28;20796;-69
2022/06/18 01:28:38;;;;;;;5.18;1.52;;;;;;;15.81;68.03;101503.03;2079893;28;20286;-69
2022/06/18 01:29:41;;;;;;;2.90;1.10;;;;;;;15.78;68.00;101498.63;2071192;28;20344;-69
2022/06/18 01:30:43;;;;;;;1.85;1.30;;;;;;;15.75;68.27;101501.41;2080118;28;20164;-68
2022/06/18 01:31:50;;;;;;;3.95;1.35;;;;;;;15.74;68.43;101496.03;2079212;28;20984;-69
2022/06/18 01:32:55;;;;;;;2.47;1.00;;;;;;;15.73;68.06;101499.69;2079265;28;20844;-69
2022/06/18 01:34:01;;;;;;;2.75;1.42;;;;;;;15.69;68.18;101496.22;2073512;28;20097;-69
2022/06/18 01:35:07;;;;;;;3.38;1.50;;;;;;;15.68;68.31;101507.06;2072050;28;20089;-68
2022/06/18 01:36:20;;;;;;;1.92;1.20;;;;;;;15.64;68.25;101498.19;2075256;28;20042;-69
2022/06/18 01:37:25;;;;;;;2.35;1.48;;;;;;;15.60;68.58;101492.00;2079455;28;20045;-69
2022/06/18 01:38:28;;;;;;;1.80;1.40;;;;;;;15.62;68.78;101495.53;2080295;28;20045;-68
2022/06/18 01:39:36;;;;;;;4.10;1.90;;;;;;;15.58;68.70;101496.59;2087941;28;20111;-68
2022/06/18 01:40:48;;;;;;;3.67;1.58;;;;;;;15.57;68.88;101493.94;2087710;28;20037;-69
2022/06/18 01:42:04;;;;;;;3.88;1.52;;;;;;;15.55;68.92;101501.22;2078685;28;20042;-69
2022/06/18 01:43:13;;;;;;;2.17;1.40;;;;;;;15.51;68.95;101494.16;2082632;28;20092;-68
2022/06/18 01:44:46;;;;;;;2.92;1.00;;;;;;;15.47;69.27;101485.31;2087691;28;20033;-67
2022/06/18 01:46:01;;;;;;;4.07;1.60;;;;;;;15.45;69.00;101484.44;2055385;28;20075;-68
2022/06/18 01:47:14;;;;;;;2.75;1.20;;;;;;;15.43;68.79;101491.72;2081476;28;20042;-69
2022/06/18 01:48:26;;;;;;;4.55;1.55;;;;;;;15.41;69.06;101488.19;2087659;28;20045;-68
2022/06/18 01:49:36;;;;;;;3.85;1.70;;;;;;;15.39;69.44;101485.53;2087666;28;20830;-68
2022/06/18 01:50:47;;;;;;;2.27;1.80;;;;;;;15.37;69.73;101484.72;2073482;28;20054;-69
2022/06/18 01:51:52;;;;;;;3.03;1.48;;;;;;;15.36;69.68;101484.75;2081153;28;20249;-69
2022/06/18 01:53:14;;;;;;;3.05;1.80;;;;;;;15.33;69.88;101484.88;2090297;28;20045;-69
2022/06/18 01:54:26;;;;;;;2.78;1.55;;;;;;;15.33;70.26;101482.19;2096229;28;20110;-68
2022/06/18 01:55:38;;;;;;;2.58;1.45;;;;;;;15.32;70.25;101485.81;2095858;28;20045;-68
2022/06/18 01:56:46;;;;;;;1.75;1.40;;;;;;;15.31;70.49;101475.94;2085227;28;20030;-68
2022/06/18 01:58:01;;;;;;;3.05;1.30;;;;;;;15.31;70.40;101481.34;2081550;28;20911;-68
2022/06/18 01:59:27;;;;;;;4.05;1.45;;;;;;;15.30;71.29;101474.19;2081710;28;20041;-68
2022/06/18 02:00:30;;;;;;;3.75;1.55;;;;;;;15.29;70.80;101476.03;2079372;28;20161;-69
2022/06/18 02:01:42;;;;;;;3.65;1.80;;;;;;;15.28;70.80;101474.25;2082193;28;20046;-69
2022/06/18 02:02:47;;;;;;;2.55;1.40;;;;;;;15.26;70.52;101468.88;2094923;28;20315;-69
2022/06/18 02:03:49;;;;;;;3.30;1.92;;;;;;;15.25;70.96;101469.84;2087294;28;20116;-68
2022/06/18 02:04:53;;;;;;;4.32;2.22;;;;;;;15.26;71.40;101473.41;2088253;28;31519;-69
2022/06/18 02:05:55;;;;;;;3.83;1.58;;;;;;;15.25;71.54;101466.25;2087237;28;22496;-68
2022/06/18 02:06:57;;;;;;;2.00;1.63;;;;;;;15.23;71.34;101468.13;2087446;28;20107;-69
2022/06/18 02:08:00;;;;;;;3.75;1.52;;;;;;;15.21;71.19;101461.91;2087877;28;20049;-69
2022/06/18 02:09:08;;;;;;;2.47;1.85;;;;;;;15.21;71.51;101465.47;2087644;28;20979;-69
2022/06/18 02:10:37;;;;;;;2.47;1.95;;;;;;;15.22;71.68;101463.66;2080099;28;20143;-69
2022/06/18 02:11:44;;;;;;;3.90;2.00;;;;;;;15.25;71.89;101464.44;2088759;28;20048;-68
2022/06/18 02:12:47;;;;;;;2.97;1.98;;;;;;;15.24;71.74;101462.66;2096159;28;20049;-68
2022/06/18 02:14:00;;;;;;;2.60;2.10;;;;;;;15.23;71.69;101457.31;2095954;28;20059;-69
2022/06/18 02:15:16;;;;;;;3.63;2.40;;;;;;;15.22;71.76;101458.28;2097588;28;20181;-68
2022/06/18 02:16:25;;;;;;;3.78;1.95;;;;;;;15.26;72.34;101454.53;2095833;28;20037;-68
2022/06/18 02:17:28;;;;;;;3.78;2.10;;;;;;;15.26;71.90;101452.69;2096215;28;20072;-69
2022/06/18 02:18:33;;;;;;;2.10;1.90;;;;;;;15.26;71.85;101463.50;2088678;28;20053;-69
2022/06/18 02:19:38;;;;;;;4.35;2.35;;;;;;;15.27;71.87;101454.47;2088283;28;20232;-68
2022/06/18 02:20:51;;;;;;;5.05;2.35;;;;;;;15.26;71.51;101450.00;2087897;28;20095;-68
2022/06/18 02:21:56;;;;;;;3.75;1.92;;;;;;;15.25;71.46;101450.97;2089861;28;20116;-68
2022/06/18 02:22:58;;;;;;;3.10;2.10;;;;;;;15.24;71.88;101459.09;2081445;28;20906;-68
2022/06/18 02:24:00;;;;;;;3.72;2.13;;;;;;;15.24;71.76;101451.88;2079422;28;20034;-68
2022/06/18 02:25:02;;;;;;;6.43;2.45;;;;;;;15.22;71.76;101444.78;2097112;28;20104;-69
2022/06/18 02:26:07;;;;;;;3.97;2.40;;;;;;;15.20;72.05;101450.22;2097633;28;20167;-69
2022/06/18 02:27:14;;;;;;;3.38;2.55;;;;;;;15.19;72.15;101447.59;2105815;28;20040;-69
2022/06/18 02:28:30;;;;;;;2.90;2.45;;;;;;;15.16;72.00;101453.94;2105653;28;20892;-68
2022/06/18 02:29:32;;;;;;;3.45;2.53;;;;;;;15.14;72.03;101447.72;2097016;28;32189;-68
2022/06/18 02:30:39;;;;;;;4.50;2.60;;;;;;;15.14;72.22;101438.75;2097483;28;20053;-68
2022/06/18 02:31:45;;;;;;;3.40;2.65;;;;;;;15.13;72.40;101437.88;2096216;28;20033;-68
2022/06/18 02:33:41;;;;;;;2.97;2.20;;;;;;;15.10;71.85;101429.88;2097269;28;20088;-68
2022/06/18 02:34:46;;;;;;;3.85;2.22;;;;;;;15.09;72.71;101438.91;2071451;28;20449;-68
2022/06/18 02:35:49;;;;;;;2.60;2.30;;;;;;;15.08;73.01;101437.16;2095800;28;20037;-68
2022/06/18 02:36:51;;;;;;;2.65;2.45;;;;;;;15.06;72.77;101433.63;2097324;28;20041;-68
2022/06/18 02:37:54;;;;;;;4.47;2.80;;;;;;;15.08;73.22;101439.84;2097930;28;20126;-68
2022/06/18 02:39:34;;;;;;;5.60;2.80;;;;;;;15.10;73.36;101439.81;2097492;28;28556;-68
2022/06/18 02:40:36;;;;;;;4.63;2.43;;;;;;;15.10;73.44;101439.81;2088591;28;25618;-69
2022/06/18 02:41:41;;;;;;;4.97;2.90;;;;;;;15.07;73.13;101448.88;2091122;28;27391;-68
2022/06/18 02:42:46;;;;;;;3.20;2.40;;;;;;;15.07;73.01;101443.47;2088480;28;20175;-69
2022/06/18 02:43:48;;;;;;;4.88;2.97;;;;;;;15.05;72.86;101442.66;2089589;28;20867;-68
2022/06/18 02:44:52;;;;;;;4.53;3.20;;;;;;;15.04;72.97;101451.69;2096608;28;20041;-68
2022/06/18 02:45:55;;;;;;;4.70;2.88;;;;;;;15.05;72.91;101464.22;2097139;28;20041;-68
2022/06/18 02:47:08;;;;;;;3.13;2.80;;;;;;;15.04;73.13;101454.38;2096997;28;20025;-69
2022/06/18 02:48:11;;;;;;;4.35;2.83;;;;;;;15.07;73.33;101456.94;2090953;28;20080;-68
2022/06/18 02:49:15;;;;;;;3.60;2.92;;;;;;;15.08;73.32;101453.34;2089983;28;20891;-68
2022/06/18 02:50:21;;;;;;;6.13;3.05;;;;;;;15.14;73.46;101452.25;2097190;28;22583;-68
2022/06/18 02:51:24;;;;;;;3.28;2.50;;;;;;;15.11;73.20;101445.16;2088436;28;20132;-68
2022/06/18 02:52:31;;;;;;;6.40;2.50;;;;;;;15.12;73.39;101443.34;2090589;28;23003;-68
2022/06/18 02:53:35;;;;;;;6.00;2.33;;;;;;;15.15;73.50;101437.84;2089704;28;20033;-68
2022/06/18 02:54:38;;;;;;;4.47;2.70;;;;;;;15.13;74.00;101440.59;2081753;28;20045;-68
2022/06/18 02:55:51;;;;;;;3.67;2.85;;;;;;;15.22;74.01;101439.41;2088572;28;20846;-68
2022/06/18 02:57:00;;;;;;;3.88;3.42;;;;;;;15.24;74.34;101448.31;2090231;28;21025;-68
2022/06/18 02:58:21;;;;;;;3.78;3.33;;;;;;;15.25;73.83;101439.25;2089678;28;20041;-69
2022/06/18 02:59:23;;;;;;;3.85;3.00;;;;;;;15.22;73.60;101428.59;2099963;28;36270;-68
2022/06/18 03:00:25;;;;;;;2.85;2.65;;;;;;;15.22;73.64;101440.28;2102622;28;20876;-68
2022/06/18 03:01:29;;;;;;;3.80;3.10;;;;;;;15.22;73.52;101440.28;2096921;28;20096;-69
2022/06/18 03:02:30;;;;;;;6.05;3.55;;;;;;;15.34;74.67;101432.66;2097034;28;21007;-69
2022/06/18 03:03:39;;;;;;;4.15;3.30;;;;;;;15.29;73.47;101430.16;2096614;28;25195;-68
2022/06/18 03:04:41;;;;;;;4.50;2.90;;;;;;;15.30;73.51;101442.69;2096858;28;20068;-69
2022/06/18 03:05:44;;;;;;;3.50;3.00;;;;;;;15.35;74.14;101447.94;2096962;28;21345;-69
2022/06/18 03:06:46;;;;;;;6.82;3.25;;;;;;;15.36;73.75;101445.19;2097130;28;20041;-69
2022/06/18 03:07:48;;;;;;;8.02;3.60;;;;;;;15.35;73.92;101438.03;2097155;28;20045;-69
2022/06/18 03:08:50;;;;;;;5.88;3.78;;;;;;;15.35;73.68;101439.84;2096748;28;20033;-69
2022/06/18 03:12:48;;;;;;;3.72;3.42;;;;;;;15.42;73.39;101441.41;2088318;28;20081;-69
2022/06/18 03:13:51;;;;;;;3.80;3.50;;;;;;;15.48;73.29;101441.16;2092335;28;20048;-69
2022/06/18 03:14:53;;;;;;;4.10;3.42;;;;;;;15.46;73.11;101443.91;2096630;28;20148;-69
2022/06/18 03:15:56;;;;;;;4.13;3.22;;;;;;;15.51;73.88;101445.59;2096234;28;20068;-69
2022/06/18 03:17:00;;;;;;;3.53;2.70;;;;;;;15.51;73.06;101451.00;2097898;28;20084;-69
2022/06/18 03:18:03;;;;;;;6.35;3.42;;;;;;;15.54;73.45;101450.84;2105255;28;20143;-69
2022/06/18 03:19:05;;;;;;;4.57;3.17;;;;;;;15.54;73.14;101454.47;2104717;28;20921;-69
2022/06/18 03:20:17;;;;;;;7.65;3.90;;;;;;;15.60;73.33;101448.84;2096734;28;20179;-69
2022/06/18 03:21:45;;;;;;;6.53;3.25;;;;;;;15.62;72.94;101454.19;2098553;28;20102;-69
2022/06/18 03:22:49;;;;;;;6.32;3.72;;;;;;;15.74;73.46;101452.84;2088517;28;20846;-69
2022/06/18 03:23:53;;;;;;;4.30;3.20;;;;;;;15.75;72.46;101454.66;2076008;28;20497;-69
2022/06/18 03:24:55;;;;;;;6.68;3.20;;;;;;;15.78;72.64;101455.41;2081024;28;20115;-69
2022/06/18 03:25:59;;;;;;;5.60;3.83;;;;;;;15.78;72.68;101452.72;2097074;28;20126;-69
2022/06/18 03:27:03;;;;;;;4.72;3.40;;;;;;;15.83;73.59;101450.72;2096657;28;20053;-69
2022/06/18 03:28:08;;;;;;;3.95;3.08;;;;;;;15.88;72.30;101450.56;2096756;28;21017;-69
2022/06/18 03:29:10;;;;;;;9.57;3.70;;;;;;;15.93;72.49;101450.38;2104843;28;20071;-68
2022/06/18 03:30:16;;;;;;;5.18;3.33;;;;;;;16.00;72.27;101449.22;2096444;28;20045;-69
2022/06/18 03:31:20;;;;;;;7.05;3.75;;;;;;;16.06;71.53;101448.09;2097237;28;20048;-70
2022/06/18 03:32:22;;;;;;;4.03;3.35;;;;;;;16.09;71.87;101450.69;2096817;28;20115;-70
2022/06/18 03:33:24;;;;;;;4.22;3.35;;;;;;;16.12;71.93;101454.16;2088223;28;20129;-69
2022/06/18 03:34:26;;;;;;;7.25;3.65;;;;;;;16.16;71.85;101449.53;2097128;28;20049;-70
2022/06/18 03:35:28;;;;;;;4.53;3.55;;;;;;;16.22;71.60;101444.78;2095686;28;20172;-70
2022/06/18 03:36:31;;;;;;;3.75;3.35;;;;;;;16.29;71.60;101449.94;2096280;28;20179;-69
2022/06/18 03:37:33;;;;;;;5.57;3.65;;;;;;;16.33;71.53;101455.16;2096476;28;20139;-69
2022/06/18 03:38:39;;;;;;;5.00;3.40;;;;;;;16.38;71.20;101449.56;2096902;28;20041;-69
2022/06/18 03:39:44;;;;;;;4.38;3.38;;;;;;;16.41;70.53;101450.34;2096906;28;20040;-69
2022/06/18 03:40:51;;;;;;;7.03;3.55;;;;;;;16.43;70.35;101447.56;2088905;28;20184;-68
2022/06/18 03:41:55;;;;;;;3.42;3.13;;;;;;;16.47;70.46;101448.34;2080954;28;20092;-68
2022/06/18 03:43:00;;;;;;;5.00;2.95;;;;;;;16.49;70.82;101457.25;2077709;28;20128;-69
2022/06/18 03:44:02;;;;;;;3.78;3.38;;;;;;;16.51;70.43;101445.47;2087636;28;20037;-68
2022/06/18 03:45:06;;;;;;;3.92;3.13;;;;;;;16.54;70.09;101444.44;2088255;28;20167;-68
2022/06/18 03:46:13;;;;;;;5.32;3.20;;;;;;;16.59;70.12;101454.13;2088144;28;20164;-69
2022/06/18 03:47:16;;;;;;;5.97;3.05;;;;;;;16.62;70.21;101453.16;2096689;28;20940;-68
2022/06/18 03:48:53;;;;;;;5.53;3.70;;;;;;;16.66;69.96;101449.38;2096171;28;20159;-68
2022/06/18 03:50:00;;;;;;;5.68;3.40;;;;;;;16.73;69.83;101445.47;2086771;28;20801;-69
2022/06/18 03:51:02;;;;;;;4.10;3.70;;;;;;;16.80;70.28;101444.28;2088158;28;20045;-68
2022/06/18 03:52:09;;;;;;;5.60;3.35;;;;;;;16.85;69.62;101444.13;2088443;28;20049;-69
2022/06/18 03:53:12;;;;;;;4.70;3.72;;;;;;;16.89;69.88;101447.59;2097294;28;20052;-68
2022/06/18 03:54:17;;;;;;;5.40;3.95;;;;;;;16.95;69.30;101450.91;2104935;28;20045;-69
2022/06/18 03:55:21;;;;;;;5.03;3.28;;;;;;;17.02;69.12;101446.13;2097928;28;20144;-69
2022/06/18 03:56:28;;;;;;;7.25;3.95;;;;;;;17.07;68.57;101449.53;2097179;28;20048;-68
2022/06/18 03:57:30;;;;;;;4.72;3.75;;;;;;;17.12;68.87;101452.91;2096739;28;20049;-67
2022/06/18 03:58:32;;;;;;;3.83;3.42;;;;;;;17.17;68.67;101453.63;2088590;28;20913;-68
2022/06/18 03:59:34;;;;;;;5.80;3.85;;;;;;;17.23;68.44;101456.97;2088057;28;20107;-68
2022/06/18 04:00:38;;;;;;;4.00;3.53;;;;;;;17.31;68.11;101461.13;2088426;28;20171;-69
2022/06/18 04:01:41;;;;;;;4.28;3.28;;;;;;;17.39;68.54;101466.22;2097466;28;20097;-69
2022/06/18 04:02:46;;;;;;;7.13;3.83;;;;;;;17.49;67.86;101462.16;2088721;28;20088;-69
2022/06/18 04:03:50;;;;;;;6.82;3.88;;;;;;;17.65;67.34;101464.19;2089253;28;20048;-69
2022/06/18 04:05:01;;;;;;;4.28;3.20;;;;;;;17.81;66.56;101462.56;2096553;28;20044;-69
2022/06/18 04:06:04;;;;;;;6.18;3.60;;;;;;;17.89;66.63;101460.44;2096124;28;20057;-69
2022/06/18 04:07:17;;;;;;;3.88;3.33;;;;;;;18.12;65.63;101464.81;2096665;28;20052;-68
2022/06/18 04:08:39;;;;;;;4.95;3.60;;;;;;;18.44;65.00;101469.66;2083574;28;20873;-69
2022/06/18 04:09:53;;;;;;;5.72;3.40;;;;;;;18.76;63.43;101464.53;2086971;28;20050;-67
2022/06/18 04:10:59;;;;;;;6.15;3.53;;;;;;;19.08;62.92;101465.69;2088702;28;20115;-69
2022/06/18 04:12:03;;;;;;;4.28;3.72;;;;;;;19.28;61.98;101456.50;2087918;28;20050;-69
2022/06/18 04:13:18;;;;;;;3.88;3.20;;;;;;;19.51;61.37;101466.19;2098549;28;20819;-69
2022/06/18 04:14:42;;;;;;;4.13;3.08;;;;;;;19.86;59.76;101463.47;2101123;28;20064;-69
2022/06/18 04:15:57;;;;;;;6.03;3.40;;;;;;;20.09;58.99;101470.38;2092724;28;20168;-69
2022/06/18 04:17:03;;;;;;;4.90;3.38;;;;;;;20.36;59.31;101461.66;2097424;28;21073;-69
2022/06/18 04:18:07;;;;;;;5.05;3.15;;;;;;;20.76;57.44;101464.88;2087960;28;20041;-70
2022/06/18 04:19:10;;;;;;;3.38;3.08;;;;;;;21.19;56.86;101465.09;2088710;28;20042;-69
2022/06/18 04:20:24;;;;;;;4.63;3.30;;;;;;;21.35;55.50;101468.69;2104145;28;20059;-69
2022/06/18 04:21:29;;;;;;;4.60;3.40;;;;;;;21.74;55.00;101472.69;2089648;28;20041;-69
2022/06/18 04:22:31;;;;;;;3.55;2.88;;;;;;;22.06;54.03;101467.09;2088151;28;20937;-68
2022/06/18 04:23:38;;;;;;;4.45;3.22;;;;;;;22.51;52.75;101474.34;2088672;28;20111;-69
2022/06/18 04:24:40;;;;;;;4.85;3.53;;;;;;;22.72;52.34;101464.75;2096972;28;20049;-68
2022/06/18 04:25:44;;;;;;;7.95;3.15;;;;;;;22.87;51.64;101471.91;2097239;28;20126;-69
2022/06/18 04:26:47;;;;;;;4.22;2.83;;;;;;;23.14;50.89;101472.94;2088516;28;20052;-69
2022/06/18 04:27:50;;;;;;;3.30;2.78;;;;;;;23.67;49.73;101473.84;2088175;28;20045;-69
2022/06/18 04:28:52;;;;;;;4.05;2.92;;;;;;;23.73;48.91;101473.41;2080072;28;20046;-69
2022/06/18 04:29:56;;;;;;;3.40;2.88;;;;;;;24.15;48.53;101470.50;2088035;28;20041;-69
2022/06/18 04:31:09;;;;;;;4.03;2.95;;;;;;;24.45;47.96;101470.13;2088190;28;20127;-69
2022/06/18 04:32:15;;;;;;;7.13;3.03;;;;;;;24.57;46.97;101474.75;2087912;28;20946;-69
2022/06/18 04:33:17;;;;;;;3.88;3.03;;;;;;;24.80;47.15;101468.53;2087970;28;20037;-69
2022/06/18 04:34:29;;;;;;;8.02;3.47;;;;;;;24.77;46.71;101469.66;2089553;28;20893;-69
2022/06/18 04:35:42;;;;;;;3.80;3.05;;;;;;;25.03;46.04;101467.66;2087868;28;20049;-69
2022/06/18 04:36:45;;;;;;;5.47;3.08;;;;;;;24.88;46.33;101466.09;2079455;28;20868;-69
2022/06/18 04:37:55;;;;;;;3.17;2.80;;;;;;;24.99;45.64;101468.91;2096953;28;20051;-69
2022/06/18 04:39:10;;;;;;;4.63;2.78;;;;;;;25.48;45.09;101467.94;2094329;28;20053;-69
2022/06/18 04:40:32;;;;;;;2.60;2.40;;;;;;;25.87;45.12;101468.50;2081384;28;20982;-69
2022/06/18 04:41:59;;;;;;;5.45;3.20;;;;;;;25.96;43.40;101468.81;2095345;28;20037;-69
2022/06/18 04:43:07;;;;;;;4.45;2.95;;;;;;;26.05;43.94;101470.81;2096349;28;20037;-69
2022/06/18 04:44:15;;;;;;;3.60;2.88;;;;;;;26.30;42.74;101466.97;2089165;28;20124;-69
2022/06/18 04:45:23;;;;;;;4.72;3.35;;;;;;;26.32;42.33;101469.59;2096184;28;20140;-69
2022/06/18 04:46:32;;;;;;;6.03;3.10;;;;;;;26.77;42.44;101464.09;2088634;28;20822;-70
2022/06/18 04:47:34;;;;;;;7.15;3.33;;;;;;;26.88;41.92;101463.19;2087606;28;20038;-70
2022/06/18 04:48:36;;;;;;;4.90;3.53;;;;;;;26.65;41.09;101460.50;2088114;28;20134;-69
2022/06/18 04:49:41;;;;;;;5.25;2.78;;;;;;;26.79;40.99;101464.84;2096205;28;20886;-69
2022/06/18 04:50:46;;;;;;;3.40;3.10;;;;;;;26.94;41.82;101454.44;2096442;28;20256;-69
2022/06/18 04:51:48;;;;;;;4.85;3.08;;;;;;;27.00;40.63;101459.41;2088312;28;20042;-67
2022/06/18 04:53:01;;;;;;;6.13;3.33;;;;;;;27.21;40.53;101462.22;2095889;28;21042;-69
2022/06/18 04:54:03;;;;;;;5.57;3.55;;;;;;;26.66;42.06;101457.59;2096330;28;20129;-69
2022/06/18 04:55:07;;;;;;;4.80;3.78;;;;;;;26.81;41.47;101458.22;2104685;28;20043;-69
2022/06/18 04:56:10;;;;;;;6.25;3.13;;;;;;;26.98;41.62;101454.03;2104664;28;20116;-69
2022/06/18 04:57:15;;;;;;;3.88;2.92;;;;;;;27.35;40.72;101453.69;2089185;28;20051;-69
2022/06/18 04:58:19;;;;;;;4.28;3.20;;;;;;;27.46;40.55;101450.03;2087844;28;20938;-68
2022/06/18 04:59:28;;;;;;;5.78;3.53;;;;;;;27.39;40.27;101457.91;2097389;28;21352;-69
2022/06/18 05:00:32;;;;;;;5.55;3.20;;;;;;;27.71;39.95;101450.59;2095921;28;20118;-70
2022/06/18 05:01:57;;;;;;;3.75;3.35;;;;;;;27.87;40.44;101456.53;2097897;28;20057;-69
2022/06/18 05:03:22;;;;;;;4.38;3.33;;;;;;;28.14;40.17;101453.22;2104126;28;20056;-69
2022/06/18 05:04:33;;;;;;;6.40;3.20;;;;;;;28.87;37.93;101447.53;2095886;28;20102;-66
2022/06/18 05:05:58;;;;;;;5.38;3.20;;;;;;;29.23;37.82;101450.66;2070731;28;20054;-69
2022/06/18 05:07:20;;;;;;;5.97;3.58;;;;;;;28.88;38.13;101440.16;2078648;28;20058;-68
2022/06/18 05:08:47;;;;;;;5.40;2.97;;;;;;;29.24;37.14;101433.09;2096191;28;20115;-69
2022/06/18 05:10:11;;;;;;;6.88;3.10;;;;;;;29.41;37.89;101438.91;2095836;28;20092;-69
2022/06/18 05:11:38;;;;;;;3.72;2.78;;;;;;;28.98;37.92;101437.41;2096795;28;20067;-69
2022/06/18 05:12:50;;;;;;;5.80;3.85;;;;;;;29.71;37.10;101435.09;2104431;28;20059;-69
2022/06/18 05:14:16;;;;;;;5.53;3.40;;;;;;;30.16;35.95;101437.16;2103993;28;20037;-69
2022/06/18 05:15:25;;;;;;;5.85;3.05;;;;;;;30.37;36.32;101438.88;2102998;28;20142;-69
2022/06/18 05:16:27;;;;;;;5.70;3.35;;;;;;;29.57;36.10;101435.53;2096043;28;20037;-69
2022/06/18 05:17:32;;;;;;;7.93;3.70;;;;;;;29.23;37.51;101445.13;2096558;28;20091;-69
2022/06/18 05:18:46;;;;;;;5.32;3.53;;;;;;;29.72;35.80;101435.94;2104356;28;20924;-69
2022/06/18 05:19:51;;;;;;;6.18;3.30;;;;;;;29.85;36.57;101437.41;2104164;28;20044;-69
2022/06/18 05:20:58;;;;;;;8.05;3.60;;;;;;;30.20;36.13;101444.16;2096331;28;20045;-69
2022/06/18 05:22:01;;;;;;;4.25;3.63;;;;;;;30.12;35.83;101446.78;2096468;28;20918;-68
2022/06/18 05:23:04;;;;;;;5.72;3.65;;;;;;;30.47;35.35;101441.56;2095953;28;20167;-68
2022/06/18 05:24:06;;;;;;;5.55;3.35;;;;;;;31.23;34.24;101443.13;2096039;28;20040;-69
2022/06/18 05:25:11;;;;;;;6.57;3.97;;;;;;;31.26;34.14;101443.66;2096090;28;20037;-69